CheckWX is a tool to help pilots better visualize weather data.  It is not intended as a substitute for an official pre-flight weather briefing.

03:13:41 UTC

KGPM METAR
Grand Prairie Municipal Airport
Grand Prairie, Texas, USA
Current

19 mins ago

KGPM 260255Z AUTO 15007KT 10SM CLR 27/18 A2999 RMK AO2 T02730177
Observed
May-26 @ 02:55 UTC
Wind
  • 150° at 7 KTS
Visibility
10 SM
Flight Rules
VFR
Cloud Levels
  • Clear skies
Temperature
27°C / 81°F
Dewpoint
18°C / 64°F
Heat Index
28°C / 83°F
Humidity
58%
Altimeter
29.99" Hg
Pressure
1015.62 hPa
Previous

39 mins ago

KGPM 260235Z AUTO 14008G14KT 10SM CLR 28/18 A2998 RMK AO2 T02750176
Observed
May-26 @ 02:35 UTC
Wind
  • 140° at 8 KTS
  • Gusting to 14 KTS
Visibility
10 SM
Flight Rules
VFR
Cloud Levels
  • Clear skies
Temperature
28°C / 82°F
Dewpoint
18°C / 64°F
Heat Index
29°C / 84°F
Humidity
55%
Altimeter
29.98" Hg
Pressure
1015.22 hPa
Previous

59 mins ago

KGPM 260215Z AUTO 14008KT 10SM CLR 28/18 A2997 RMK AO2 T02770178
Observed
May-26 @ 02:15 UTC
Wind
  • 140° at 8 KTS
Visibility
10 SM
Flight Rules
VFR
Cloud Levels
  • Clear skies
Temperature
28°C / 82°F
Dewpoint
18°C / 64°F
Heat Index
29°C / 84°F
Humidity
55%
Altimeter
29.97" Hg
Pressure
1014.92 hPa